ADDS METAR Data INFO
IDs: Format: Raw Decoded Include TAF

Data at: 1323 UTC 19 Jul 2018

KORF 191251Z 03006KT 10SM CLR 28/21 A3005 RMK AO2 SLP175 T02780206
KORF 191151Z 00000KT 10SM CLR 26/21 A3002 RMK AO2 SLP166 T02610206 10261 20200 51010
KORF 191051Z 00000KT 10SM CLR 23/19 A3002 RMK AO2 SLP164 T02280189
KORF 190951Z 00000KT 10SM CLR 23/17 A3000 RMK AO2 SLP158 T02280172
KORF 190851Z 35003KT 10SM CLR 24/17 A2999 RMK AO2 SLP156 T02390172 55001
KORF 190751Z 00000KT 10SM CLR 24/18 A2999 RMK AO2 SLP155 T02390183
KORF 190651Z 00000KT 10SM CLR 22/17 A3000 RMK AO2 SLP157 T02170172
KORF 190551Z 00000KT 10SM SCT070 23/18 A3000 RMK AO2 SLP157 T02280178 10272 20222 53006
KORF 190451Z 00000KT 10SM CLR 23/17 A2999 RMK AO2 SLP154 T02280167 402940228
KORF 190351Z 00000KT 10SM CLR 24/17 A2998 RMK AO2 SLP150 T02390172
KORF 190251Z 25003KT 10SM CLR 23/17 A2998 RMK AO2 SLP150 T02280167 53013
KORF 190151Z 07003KT 10SM CLR 26/16 A2995 RMK AO2 SLP143 T02610161
KORF 190051Z 04007KT 10SM CLR 26/14 A2994 RMK AO2 SLP139 T02610139
KORF 182351Z 02007KT 10SM SCT070 27/14 A2994 RMK AO2 SLP138 T02720144 10294 20272 53007
KORF 182251Z 03009KT 10SM CLR 28/17 A2993 RMK AO2 SLP135 T02830172
KORF 182151Z 01008KT 10SM FEW060 29/16 A2992 RMK AO2 SLP130 T02890156
KORF 182051Z 05007KT 10SM BKN050 28/17 A2992 RMK AO2 SLP131 T02830172 58003
KORF 181951Z 04004KT 10SM BKN055 28/17 A2993 RMK AO2 SLP135 T02830167
KORF 181851Z 04009KT 10SM CLR 28/18 A2993 RMK AO2 SLP135 T02830183
KORF 181751Z 01011KT 10SM CLR 29/20 A2993 RMK AO2 SLP133 T02940200 50001 $
KORF 181651Z 02012KT 10SM CLR 29/21 A2993 RMK AO2 SLP134 T02890206
KORF 181551Z 35011KT 10SM FEW027 28/21 A2993 RMK AO2 SLP135 T02780206
KORF 181533Z 01013G18KT 10SM CLR 28/21 A2993 RMK AO2 T02780206
KORF 181451Z 36012G21KT 10SM CLR 28/22 A2992 RMK AO2 SLP132 T02780217 50004
KORF 181351Z 01013KT 10SM BKN100 27/22 A2993 RMK AO2 SLP133 T02720222
KORF 181251Z 35011KT 10SM FEW017 SCT110 26/23 A2993 RMK AO2 SLP134 T02610228
KORF 181151Z 01013G18KT 10SM OVC018 26/22 A2991 RMK AO2 SLP128 70008 T02560222 10256 20244 52022
KORF 181111Z 35010G16KT 10SM BKN017 26/23 A2989 RMK AO2 T02560228
KORF 181051Z 35004KT 10SM FEW013 25/23 A2989 RMK AO2 SLP120 T02500228
KORF 180951Z VRB03KT 10SM FEW035 24/23 A2987 RMK AO2 SLP114 T02440228
KORF 180929Z 30003KT 10SM SCT028 24/23 A2986 RMK AO2 T02440228
KORF 180915Z 27003KT 10SM BKN028 24/23 A2985 RMK AO2 T02440228
KORF 180851Z VRB03KT 10SM CLR 24/23 A2985 RMK AO2 SLP106 T02440228 55003
KORF 180751Z 27004KT 10SM CLR 25/23 A2984 RMK AO2 SLP105 T02500233
KORF 180651Z VRB04KT 10SM CLR 24/23 A2984 RMK AO2 SLP106 T02440233
KORF 180551Z 00000KT 10SM FEW100 24/23 A2986 RMK AO2 SLP109 60001 T02440233 10300 20239 50001
KORF 180451Z 27005KT 10SM SCT100 24/23 A2986 RMK AO2 SLP112 T02390228 403440239
KORF 180351Z 24012KT 10SM CLR 24/24 A2986 RMK AO2 RAB0252E19 SLP112 P0000 T02440239
KORF 180314Z 25006KT 10SM -RA SCT007 SCT120 25/24 A2985 RMK AO2 RAB0252 P0000 T02500239
KORF 180251Z 26006KT 10SM FEW120 25/23 A2985 RMK AO2 RAB21E48 SLP108 P0001 60001 T02500233 53005
KORF 180151Z 23011KT 10SM SCT034 28/24 A2984 RMK AO2 SLP105 T02780244